sensor_id;sensor_type;location;lat;lon;timestamp;temperature;humidity
42085;DHT22;27746;52.228;20.890;2023-06-22T00:01:20;20.50;99.90
42085;DHT22;27746;52.228;20.890;2023-06-22T00:03:48;20.90;99.90
42085;DHT22;27746;52.228;20.890;2023-06-22T00:06:16;21.00;99.90
42085;DHT22;27746;52.228;20.890;2023-06-22T00:08:43;20.90;99.90
42085;DHT22;27746;52.228;20.890;2023-06-22T00:11:12;20.90;99.90
42085;DHT22;27746;52.228;20.890;2023-06-22T00:13:39;20.90;99.90
42085;DHT22;27746;52.228;20.890;2023-06-22T00:16:07;20.90;99.90
42085;DHT22;27746;52.228;20.890;2023-06-22T00:18:34;20.90;99.90
42085;DHT22;27746;52.228;20.890;2023-06-22T00:21:01;20.80;99.90
42085;DHT22;27746;52.228;20.890;2023-06-22T00:23:28;20.80;99.90
42085;DHT22;27746;52.228;20.890;2023-06-22T00:25:59;20.80;99.90
42085;DHT22;27746;52.228;20.890;2023-06-22T00:28:26;20.70;99.90
42085;DHT22;27746;52.228;20.890;2023-06-22T00:30:54;20.70;99.90
42085;DHT22;27746;52.228;20.890;2023-06-22T00:33:22;20.70;99.90
42085;DHT22;27746;52.228;20.890;2023-06-22T00:35:49;20.70;99.90
42085;DHT22;27746;52.228;20.890;2023-06-22T00:38:18;20.70;99.90
42085;DHT22;27746;52.228;20.890;2023-06-22T00:40:45;20.70;99.90
42085;DHT22;27746;52.228;20.890;2023-06-22T00:43:12;20.70;99.90
42085;DHT22;27746;52.228;20.890;2023-06-22T00:45:38;20.60;99.90
42085;DHT22;27746;52.228;20.890;2023-06-22T00:48:06;20.70;99.90
42085;DHT22;27746;52.228;20.890;2023-06-22T00:50:35;20.60;99.90
42085;DHT22;27746;52.228;20.890;2023-06-22T00:53:04;20.60;99.90
42085;DHT22;27746;52.228;20.890;2023-06-22T00:55:34;20.60;99.90
42085;DHT22;27746;52.228;20.890;2023-06-22T00:58:03;20.60;99.90
42085;DHT22;27746;52.228;20.890;2023-06-22T01:00:31;20.50;99.90
42085;DHT22;27746;52.228;20.890;2023-06-22T01:02:58;20.50;99.90
42085;DHT22;27746;52.228;20.890;2023-06-22T01:05:25;20.50;99.90
42085;DHT22;27746;52.228;20.890;2023-06-22T01:08:06;20.50;99.90
42085;DHT22;27746;52.228;20.890;2023-06-22T01:10:41;20.40;99.90
42085;DHT22;27746;52.228;20.890;2023-06-22T01:13:16;20.40;99.90
42085;DHT22;27746;52.228;20.890;2023-06-22T01:15:49;20.40;99.90
42085;DHT22;27746;52.228;20.890;2023-06-22T01:18:18;20.40;99.90
42085;DHT22;27746;52.228;20.890;2023-06-22T01:20:46;20.30;99.90
42085;DHT22;27746;52.228;20.890;2023-06-22T01:23:27;20.40;99.90
42085;DHT22;27746;52.228;20.890;2023-06-22T01:26:02;20.40;99.90
42085;DHT22;27746;52.228;20.890;2023-06-22T01:28:41;20.40;99.90
42085;DHT22;27746;52.228;20.890;2023-06-22T01:31:10;20.40;99.90
42085;DHT22;27746;52.228;20.890;2023-06-22T01:33:41;20.40;99.90
42085;DHT22;27746;52.228;20.890;2023-06-22T01:36:10;20.40;99.90
42085;DHT22;27746;52.228;20.890;2023-06-22T01:38:37;20.40;99.90
42085;DHT22;27746;52.228;20.890;2023-06-22T01:41:05;20.40;99.90
42085;DHT22;27746;52.228;20.890;2023-06-22T01:43:33;20.30;99.90
42085;DHT22;27746;52.228;20.890;2023-06-22T01:46:02;19.20;99.90
42085;DHT22;27746;52.228;20.890;2023-06-22T01:48:29;20.30;99.90
42085;DHT22;27746;52.228;20.890;2023-06-22T01:50:56;20.30;99.90
42085;DHT22;27746;52.228;20.890;2023-06-22T01:53:23;20.30;99.90
42085;DHT22;27746;52.228;20.890;2023-06-22T01:55:50;20.30;99.90
42085;DHT22;27746;52.228;20.890;2023-06-22T01:58:20;20.30;99.90
42085;DHT22;27746;52.228;20.890;2023-06-22T02:00:51;20.30;99.90
42085;DHT22;27746;52.228;20.890;2023-06-22T02:03:23;20.20;99.90
42085;DHT22;27746;52.228;20.890;2023-06-22T02:06:01;20.20;99.90
42085;DHT22;27746;52.228;20.890;2023-06-22T02:08:30;20.10;99.90
42085;DHT22;27746;52.228;20.890;2023-06-22T02:10:59;20.10;99.90
42085;DHT22;27746;52.228;20.890;2023-06-22T02:13:27;20.10;99.90
42085;DHT22;27746;52.228;20.890;2023-06-22T02:15:54;20.10;99.90
42085;DHT22;27746;52.228;20.890;2023-06-22T02:18:22;20.10;99.90
42085;DHT22;27746;52.228;20.890;2023-06-22T02:20:51;21.00;99.90
42085;DHT22;27746;52.228;20.890;2023-06-22T02:23:18;20.00;99.90
42085;DHT22;27746;52.228;20.890;2023-06-22T02:25:45;20.00;99.90
42085;DHT22;27746;52.228;20.890;2023-06-22T02:28:12;20.10;99.90
42085;DHT22;27746;52.228;20.890;2023-06-22T02:30:39;20.00;99.90
42085;DHT22;27746;52.228;20.890;2023-06-22T02:35:34;20.00;99.90
42085;DHT22;27746;52.228;20.890;2023-06-22T02:38:03;20.00;99.90
42085;DHT22;27746;52.228;20.890;2023-06-22T02:40:31;20.00;99.90
42085;DHT22;27746;52.228;20.890;2023-06-22T02:42:58;20.00;99.90
42085;DHT22;27746;52.228;20.890;2023-06-22T02:45:27;20.00;99.90
42085;DHT22;27746;52.228;20.890;2023-06-22T02:47:55;20.00;99.90
42085;DHT22;27746;52.228;20.890;2023-06-22T02:50:22;20.00;99.90
42085;DHT22;27746;52.228;20.890;2023-06-22T02:52:50;19.90;99.90
42085;DHT22;27746;52.228;20.890;2023-06-22T02:55:17;20.00;99.90
42085;DHT22;27746;52.228;20.890;2023-06-22T03:00:13;20.00;99.90
42085;DHT22;27746;52.228;20.890;2023-06-22T03:02:43;20.10;99.90
42085;DHT22;27746;52.228;20.890;2023-06-22T03:07:40;20.00;99.90
42085;DHT22;27746;52.228;20.890;2023-06-22T03:10:12;20.00;99.90
42085;DHT22;27746;52.228;20.890;2023-06-22T03:12:39;20.00;99.90
42085;DHT22;27746;52.228;20.890;2023-06-22T03:15:08;19.90;99.90
42085;DHT22;27746;52.228;20.890;2023-06-22T03:17:36;20.00;99.90
42085;DHT22;27746;52.228;20.890;2023-06-22T03:20:04;20.10;99.90
42085;DHT22;27746;52.228;20.890;2023-06-22T03:25:01;20.00;99.90
42085;DHT22;27746;52.228;20.890;2023-06-22T03:27:30;20.00;99.90
42085;DHT22;27746;52.228;20.890;2023-06-22T03:29:57;20.00;99.90
42085;DHT22;27746;52.228;20.890;2023-06-22T03:32:24;20.10;99.90
42085;DHT22;27746;52.228;20.890;2023-06-22T03:37:24;20.10;99.90
42085;DHT22;27746;52.228;20.890;2023-06-22T03:39:51;20.00;99.90
42085;DHT22;27746;52.228;20.890;2023-06-22T03:42:18;20.10;99.90
42085;DHT22;27746;52.228;20.890;2023-06-22T03:44:46;20.10;99.90
42085;DHT22;27746;52.228;20.890;2023-06-22T03:47:13;20.10;99.90
42085;DHT22;27746;52.228;20.890;2023-06-22T03:49:40;20.10;99.90
42085;DHT22;27746;52.228;20.890;2023-06-22T03:52:07;20.10;99.90
42085;DHT22;27746;52.228;20.890;2023-06-22T03:54:34;20.10;99.90
42085;DHT22;27746;52.228;20.890;2023-06-22T03:57:01;20.20;99.90
42085;DHT22;27746;52.228;20.890;2023-06-22T03:59:28;20.20;99.90
42085;DHT22;27746;52.228;20.890;2023-06-22T04:01:56;20.20;99.90
42085;DHT22;27746;52.228;20.890;2023-06-22T04:04:23;20.20;99.90
42085;DHT22;27746;52.228;20.890;2023-06-22T04:06:50;20.20;99.90
42085;DHT22;27746;52.228;20.890;2023-06-22T04:09:17;20.30;99.90
42085;DHT22;27746;52.228;20.890;2023-06-22T04:11:44;20.30;99.90
42085;DHT22;27746;52.228;20.890;2023-06-22T04:14:11;20.30;99.90
42085;DHT22;27746;52.228;20.890;2023-06-22T04:16:38;20.40;99.90
42085;DHT22;27746;52.228;20.890;2023-06-22T04:19:06;20.40;99.90
42085;DHT22;27746;52.228;20.890;2023-06-22T04:21:38;20.40;99.90
42085;DHT22;27746;52.228;20.890;2023-06-22T04:24:06;20.50;99.90
42085;DHT22;27746;52.228;20.890;2023-06-22T04:26:33;20.40;99.90
42085;DHT22;27746;52.228;20.890;2023-06-22T04:29:02;20.60;99.90
42085;DHT22;27746;52.228;20.890;2023-06-22T04:31:30;20.50;99.90
42085;DHT22;27746;52.228;20.890;2023-06-22T04:34:02;20.50;99.90
42085;DHT22;27746;52.228;20.890;2023-06-22T04:36:34;20.50;99.90
42085;DHT22;27746;52.228;20.890;2023-06-22T04:39:04;20.60;99.90
42085;DHT22;27746;52.228;20.890;2023-06-22T04:44:11;20.60;99.90
42085;DHT22;27746;52.228;20.890;2023-06-22T04:46:38;20.70;99.90
42085;DHT22;27746;52.228;20.890;2023-06-22T04:49:06;20.70;99.90
42085;DHT22;27746;52.228;20.890;2023-06-22T04:51:38;20.80;99.90
42085;DHT22;27746;52.228;20.890;2023-06-22T04:54:06;20.80;99.90
42085;DHT22;27746;52.228;20.890;2023-06-22T04:56:33;20.80;99.90
42085;DHT22;27746;52.228;20.890;2023-06-22T04:59:00;20.80;99.90
42085;DHT22;27746;52.228;20.890;2023-06-22T05:01:27;20.90;99.90
42085;DHT22;27746;52.228;20.890;2023-06-22T05:03:53;20.90;99.90
42085;DHT22;27746;52.228;20.890;2023-06-22T05:06:22;20.80;99.90
42085;DHT22;27746;52.228;20.890;2023-06-22T05:08:52;20.90;99.90
42085;DHT22;27746;52.228;20.890;2023-06-22T05:11:23;20.90;99.90
42085;DHT22;27746;52.228;20.890;2023-06-22T05:13:50;20.90;99.90
42085;DHT22;27746;52.228;20.890;2023-06-22T05:16:16;21.00;99.90
42085;DHT22;27746;52.228;20.890;2023-06-22T05:18:48;21.00;99.90
42085;DHT22;27746;52.228;20.890;2023-06-22T05:21:15;21.00;99.90
42085;DHT22;27746;52.228;20.890;2023-06-22T05:23:42;21.00;99.90
42085;DHT22;27746;52.228;20.890;2023-06-22T05:26:10;21.10;99.90
42085;DHT22;27746;52.228;20.890;2023-06-22T05:28:37;21.10;99.90
42085;DHT22;27746;52.228;20.890;2023-06-22T05:31:04;21.20;99.90
42085;DHT22;27746;52.228;20.890;2023-06-22T05:33:31;21.30;99.90
42085;DHT22;27746;52.228;20.890;2023-06-22T05:35:57;21.30;99.90
42085;DHT22;27746;52.228;20.890;2023-06-22T05:38:24;21.20;99.90
42085;DHT22;27746;52.228;20.890;2023-06-22T05:40:51;21.30;99.90
42085;DHT22;27746;52.228;20.890;2023-06-22T05:43:19;21.30;99.90
42085;DHT22;27746;52.228;20.890;2023-06-22T05:45:46;21.30;99.90
42085;DHT22;27746;52.228;20.890;2023-06-22T05:48:13;21.40;99.90
42085;DHT22;27746;52.228;20.890;2023-06-22T05:50:40;21.40;99.90
42085;DHT22;27746;52.228;20.890;2023-06-22T05:53:07;21.40;99.90
42085;DHT22;27746;52.228;20.890;2023-06-22T05:55:34;21.40;99.90
42085;DHT22;27746;52.228;20.890;2023-06-22T05:58:01;21.50;99.90
42085;DHT22;27746;52.228;20.890;2023-06-22T06:00:30;21.40;99.90
42085;DHT22;27746;52.228;20.890;2023-06-22T06:02:57;21.40;99.90
42085;DHT22;27746;52.228;20.890;2023-06-22T06:05:28;21.60;99.90
42085;DHT22;27746;52.228;20.890;2023-06-22T06:07:55;21.60;99.90
42085;DHT22;27746;52.228;20.890;2023-06-22T06:10:22;21.70;99.90
42085;DHT22;27746;52.228;20.890;2023-06-22T06:12:49;21.70;99.90
42085;DHT22;27746;52.228;20.890;2023-06-22T06:15:16;21.70;99.90
42085;DHT22;27746;52.228;20.890;2023-06-22T06:17:48;21.80;99.90
42085;DHT22;27746;52.228;20.890;2023-06-22T06:20:15;21.80;99.90
42085;DHT22;27746;52.228;20.890;2023-06-22T06:22:42;21.90;99.90
42085;DHT22;27746;52.228;20.890;2023-06-22T06:25:10;21.90;99.90
42085;DHT22;27746;52.228;20.890;2023-06-22T06:27:42;22.00;99.90
42085;DHT22;27746;52.228;20.890;2023-06-22T06:30:09;22.10;99.90
42085;DHT22;27746;52.228;20.890;2023-06-22T06:32:39;22.10;99.90
42085;DHT22;27746;52.228;20.890;2023-06-22T06:35:09;22.20;99.90
42085;DHT22;27746;52.228;20.890;2023-06-22T06:37:37;22.30;99.90
42085;DHT22;27746;52.228;20.890;2023-06-22T06:40:06;22.40;99.90
42085;DHT22;27746;52.228;20.890;2023-06-22T06:42:35;22.50;99.90
42085;DHT22;27746;52.228;20.890;2023-06-22T06:45:04;22.60;99.90
42085;DHT22;27746;52.228;20.890;2023-06-22T06:47:31;22.70;99.90
42085;DHT22;27746;52.228;20.890;2023-06-22T06:49:58;22.80;99.90
42085;DHT22;27746;52.228;20.890;2023-06-22T06:52:26;22.90;99.90
42085;DHT22;27746;52.228;20.890;2023-06-22T06:54:53;23.00;99.90
42085;DHT22;27746;52.228;20.890;2023-06-22T06:57:20;23.10;99.90
42085;DHT22;27746;52.228;20.890;2023-06-22T06:59:48;23.30;99.90
42085;DHT22;27746;52.228;20.890;2023-06-22T07:02:15;23.40;99.90
42085;DHT22;27746;52.228;20.890;2023-06-22T07:04:41;23.50;99.90
42085;DHT22;27746;52.228;20.890;2023-06-22T07:07:08;23.60;99.90
42085;DHT22;27746;52.228;20.890;2023-06-22T07:09:36;23.70;99.90
42085;DHT22;27746;52.228;20.890;2023-06-22T07:12:04;23.80;99.90
42085;DHT22;27746;52.228;20.890;2023-06-22T07:14:31;23.90;99.90
42085;DHT22;27746;52.228;20.890;2023-06-22T07:16:58;24.00;99.90
42085;DHT22;27746;52.228;20.890;2023-06-22T07:19:25;24.10;99.90
42085;DHT22;27746;52.228;20.890;2023-06-22T07:21:52;24.20;99.90
42085;DHT22;27746;52.228;20.890;2023-06-22T07:24:19;24.30;99.90
42085;DHT22;27746;52.228;20.890;2023-06-22T07:26:47;24.40;99.90
42085;DHT22;27746;52.228;20.890;2023-06-22T07:29:15;24.50;99.90
42085;DHT22;27746;52.228;20.890;2023-06-22T07:31:42;24.50;99.90
42085;DHT22;27746;52.228;20.890;2023-06-22T07:34:11;24.60;99.90
42085;DHT22;27746;52.228;20.890;2023-06-22T07:36:38;24.60;99.90
42085;DHT22;27746;52.228;20.890;2023-06-22T07:39:05;24.70;99.90
42085;DHT22;27746;52.228;20.890;2023-06-22T07:41:32;24.70;99.90
42085;DHT22;27746;52.228;20.890;2023-06-22T07:44:01;24.80;99.90
42085;DHT22;27746;52.228;20.890;2023-06-22T07:46:28;24.90;99.90
42085;DHT22;27746;52.228;20.890;2023-06-22T07:48:56;24.90;99.90
42085;DHT22;27746;52.228;20.890;2023-06-22T07:51:23;25.00;99.90
42085;DHT22;27746;52.228;20.890;2023-06-22T07:53:50;25.10;99.90
42085;DHT22;27746;52.228;20.890;2023-06-22T07:56:17;25.20;99.90
42085;DHT22;27746;52.228;20.890;2023-06-22T07:58:46;25.30;99.90
42085;DHT22;27746;52.228;20.890;2023-06-22T08:01:14;25.30;99.90
42085;DHT22;27746;52.228;20.890;2023-06-22T08:03:42;25.40;99.90
42085;DHT22;27746;52.228;20.890;2023-06-22T08:06:09;25.50;99.90
42085;DHT22;27746;52.228;20.890;2023-06-22T08:08:36;25.60;99.90
42085;DHT22;27746;52.228;20.890;2023-06-22T08:11:03;25.60;99.90
42085;DHT22;27746;52.228;20.890;2023-06-22T08:13:31;25.70;99.90
42085;DHT22;27746;52.228;20.890;2023-06-22T08:15:58;25.80;99.90
42085;DHT22;27746;52.228;20.890;2023-06-22T08:18:26;25.90;99.90
42085;DHT22;27746;52.228;20.890;2023-06-22T08:20:53;25.90;99.90
42085;DHT22;27746;52.228;20.890;2023-06-22T08:23:20;26.00;99.90
42085;DHT22;27746;52.228;20.890;2023-06-22T08:25:47;26.10;99.90
42085;DHT22;27746;52.228;20.890;2023-06-22T08:28:15;26.10;99.80
42085;DHT22;27746;52.228;20.890;2023-06-22T08:30:42;26.10;99.90
42085;DHT22;27746;52.228;20.890;2023-06-22T08:33:09;26.10;99.90
42085;DHT22;27746;52.228;20.890;2023-06-22T08:35:38;26.20;99.90
42085;DHT22;27746;52.228;20.890;2023-06-22T08:38:05;26.20;99.40
42085;DHT22;27746;52.228;20.890;2023-06-22T08:40:31;26.20;99.50
42085;DHT22;27746;52.228;20.890;2023-06-22T08:42:58;26.30;99.10
42085;DHT22;27746;52.228;20.890;2023-06-22T08:45:25;26.40;98.80
42085;DHT22;27746;52.228;20.890;2023-06-22T08:47:52;26.40;98.50
42085;DHT22;27746;52.228;20.890;2023-06-22T08:50:19;26.40;97.50
42085;DHT22;27746;52.228;20.890;2023-06-22T08:52:47;26.40;97.30
42085;DHT22;27746;52.228;20.890;2023-06-22T08:55:14;26.50;96.80
42085;DHT22;27746;52.228;20.890;2023-06-22T08:57:41;26.60;97.00
42085;DHT22;27746;52.228;20.890;2023-06-22T09:00:09;26.70;96.10
42085;DHT22;27746;52.228;20.890;2023-06-22T09:02:42;26.70;95.50
42085;DHT22;27746;52.228;20.890;2023-06-22T09:05:09;26.80;95.80
42085;DHT22;27746;52.228;20.890;2023-06-22T09:07:36;26.80;95.80
42085;DHT22;27746;52.228;20.890;2023-06-22T09:10:05;26.90;95.40
42085;DHT22;27746;52.228;20.890;2023-06-22T09:12:32;26.90;94.80
42085;DHT22;27746;52.228;20.890;2023-06-22T09:15:00;27.00;94.80
42085;DHT22;27746;52.228;20.890;2023-06-22T09:17:28;27.10;94.90
42085;DHT22;27746;52.228;20.890;2023-06-22T09:19:55;27.20;94.10
42085;DHT22;27746;52.228;20.890;2023-06-22T09:22:22;27.20;94.20
42085;DHT22;27746;52.228;20.890;2023-06-22T09:24:54;27.30;93.80
42085;DHT22;27746;52.228;20.890;2023-06-22T09:27:22;27.40;93.80
42085;DHT22;27746;52.228;20.890;2023-06-22T09:29:49;27.50;93.70
42085;DHT22;27746;52.228;20.890;2023-06-22T09:32:16;27.60;93.80
42085;DHT22;27746;52.228;20.890;2023-06-22T09:34:43;27.70;93.30
42085;DHT22;27746;52.228;20.890;2023-06-22T09:37:10;27.70;92.40
42085;DHT22;27746;52.228;20.890;2023-06-22T09:39:37;27.70;92.70
42085;DHT22;27746;52.228;20.890;2023-06-22T09:42:04;27.70;92.50
42085;DHT22;27746;52.228;20.890;2023-06-22T09:44:33;27.80;92.40
42085;DHT22;27746;52.228;20.890;2023-06-22T09:47:00;27.90;91.90
42085;DHT22;27746;52.228;20.890;2023-06-22T09:49:27;28.00;92.10
42085;DHT22;27746;52.228;20.890;2023-06-22T09:51:55;28.10;91.80
42085;DHT22;27746;52.228;20.890;2023-06-22T09:54:22;28.10;92.00
42085;DHT22;27746;52.228;20.890;2023-06-22T09:56:49;28.30;91.40
42085;DHT22;27746;52.228;20.890;2023-06-22T09:59:16;28.40;90.90
42085;DHT22;27746;52.228;20.890;2023-06-22T10:01:44;28.50;90.80
42085;DHT22;27746;52.228;20.890;2023-06-22T10:04:11;28.60;90.90
42085;DHT22;27746;52.228;20.890;2023-06-22T10:06:38;28.70;90.90
42085;DHT22;27746;52.228;20.890;2023-06-22T10:09:06;28.80;90.60
42085;DHT22;27746;52.228;20.890;2023-06-22T10:11:33;28.90;90.00
42085;DHT22;27746;52.228;20.890;2023-06-22T10:14:00;28.90;90.00
42085;DHT22;27746;52.228;20.890;2023-06-22T10:16:30;29.00;89.20
42085;DHT22;27746;52.228;20.890;2023-06-22T10:18:59;29.00;88.50
42085;DHT22;27746;52.228;20.890;2023-06-22T10:21:26;29.10;87.80
42085;DHT22;27746;52.228;20.890;2023-06-22T10:23:54;29.10;86.50
42085;DHT22;27746;52.228;20.890;2023-06-22T10:26:21;29.20;88.00
42085;DHT22;27746;52.228;20.890;2023-06-22T10:28:48;29.20;88.30
42085;DHT22;27746;52.228;20.890;2023-06-22T10:31:15;29.30;88.30
42085;DHT22;27746;52.228;20.890;2023-06-22T10:33:42;29.30;89.00
42085;DHT22;27746;52.228;20.890;2023-06-22T10:36:11;29.40;88.00
42085;DHT22;27746;52.228;20.890;2023-06-22T10:38:38;29.50;87.40
42085;DHT22;27746;52.228;20.890;2023-06-22T10:41:05;29.50;87.30
42085;DHT22;27746;52.228;20.890;2023-06-22T10:43:32;29.50;86.50
42085;DHT22;27746;52.228;20.890;2023-06-22T10:45:58;29.30;83.40
42085;DHT22;27746;52.228;20.890;2023-06-22T10:48:25;29.30;83.30
42085;DHT22;27746;52.228;20.890;2023-06-22T10:50:52;29.20;84.50
42085;DHT22;27746;52.228;20.890;2023-06-22T10:53:21;29.30;83.80
42085;DHT22;27746;52.228;20.890;2023-06-22T10:55:48;29.40;84.30
42085;DHT22;27746;52.228;20.890;2023-06-22T10:58:15;29.50;84.30
42085;DHT22;27746;52.228;20.890;2023-06-22T11:00:42;29.60;84.40
42085;DHT22;27746;52.228;20.890;2023-06-22T11:03:09;29.70;84.30
42085;DHT22;27746;52.228;20.890;2023-06-22T11:05:35;29.80;83.70
42085;DHT22;27746;52.228;20.890;2023-06-22T11:08:03;29.90;83.70
42085;DHT22;27746;52.228;20.890;2023-06-22T11:10:31;29.90;82.70
42085;DHT22;27746;52.228;20.890;2023-06-22T11:12:58;30.00;83.60
42085;DHT22;27746;52.228;20.890;2023-06-22T11:15:25;30.10;84.30
42085;DHT22;27746;52.228;20.890;2023-06-22T11:17:52;30.20;83.40
42085;DHT22;27746;52.228;20.890;2023-06-22T11:20:19;30.30;80.70
42085;DHT22;27746;52.228;20.890;2023-06-22T11:22:46;30.30;81.90
42085;DHT22;27746;52.228;20.890;2023-06-22T11:25:13;30.40;81.60
42085;DHT22;27746;52.228;20.890;2023-06-22T11:27:41;30.40;80.70
42085;DHT22;27746;52.228;20.890;2023-06-22T11:30:09;30.50;80.20
42085;DHT22;27746;52.228;20.890;2023-06-22T11:32:36;30.60;79.60
42085;DHT22;27746;52.228;20.890;2023-06-22T11:35:03;30.70;79.40
42085;DHT22;27746;52.228;20.890;2023-06-22T11:37:30;30.60;78.60
42085;DHT22;27746;52.228;20.890;2023-06-22T11:39:57;30.60;78.30
42085;DHT22;27746;52.228;20.890;2023-06-22T11:42:24;30.70;78.70
42085;DHT22;27746;52.228;20.890;2023-06-22T11:44:52;30.80;79.50
42085;DHT22;27746;52.228;20.890;2023-06-22T11:47:19;30.80;77.80
42085;DHT22;27746;52.228;20.890;2023-06-22T11:49:45;30.80;78.50
42085;DHT22;27746;52.228;20.890;2023-06-22T11:52:12;30.90;77.30
42085;DHT22;27746;52.228;20.890;2023-06-22T11:54:39;30.80;76.90
42085;DHT22;27746;52.228;20.890;2023-06-22T11:57:06;30.80;74.80
42085;DHT22;27746;52.228;20.890;2023-06-22T11:59:33;30.80;75.50
42085;DHT22;27746;52.228;20.890;2023-06-22T12:02:02;30.80;75.80
42085;DHT22;27746;52.228;20.890;2023-06-22T12:04:29;30.80;74.90
42085;DHT22;27746;52.228;20.890;2023-06-22T12:06:56;30.80;75.80
42085;DHT22;27746;52.228;20.890;2023-06-22T12:09:24;30.90;75.60
42085;DHT22;27746;52.228;20.890;2023-06-22T12:11:50;30.80;75.50
42085;DHT22;27746;52.228;20.890;2023-06-22T12:14:17;30.90;75.70
42085;DHT22;27746;52.228;20.890;2023-06-22T12:16:44;30.90;74.30
42085;DHT22;27746;52.228;20.890;2023-06-22T12:19:12;31.00;75.90
42085;DHT22;27746;52.228;20.890;2023-06-22T12:21:39;30.90;74.20
42085;DHT22;27746;52.228;20.890;2023-06-22T12:24:07;30.70;74.50
42085;DHT22;27746;52.228;20.890;2023-06-22T12:26:33;30.60;74.00
42085;DHT22;27746;52.228;20.890;2023-06-22T12:29:00;30.50;74.70
42085;DHT22;27746;52.228;20.890;2023-06-22T12:31:27;30.60;74.30
42085;DHT22;27746;52.228;20.890;2023-06-22T12:33:54;30.70;75.20
42085;DHT22;27746;52.228;20.890;2023-06-22T12:36:22;30.60;74.30
42085;DHT22;27746;52.228;20.890;2023-06-22T12:38:50;30.60;73.50
42085;DHT22;27746;52.228;20.890;2023-06-22T12:41:19;30.60;74.80
42085;DHT22;27746;52.228;20.890;2023-06-22T12:43:46;30.50;74.40
42085;DHT22;27746;52.228;20.890;2023-06-22T12:46:13;30.50;73.30
42085;DHT22;27746;52.228;20.890;2023-06-22T12:48:40;30.40;73.30
42085;DHT22;27746;52.228;20.890;2023-06-22T12:51:08;30.40;72.80
42085;DHT22;27746;52.228;20.890;2023-06-22T12:53:36;30.00;72.30
42085;DHT22;27746;52.228;20.890;2023-06-22T12:56:05;30.40;72.80
42085;DHT22;27746;52.228;20.890;2023-06-22T12:58:35;30.30;72.70
42085;DHT22;27746;52.228;20.890;2023-06-22T13:01:02;30.20;72.30
42085;DHT22;27746;52.228;20.890;2023-06-22T13:03:28;30.30;72.10
42085;DHT22;27746;52.228;20.890;2023-06-22T13:05:55;30.30;72.60
42085;DHT22;27746;52.228;20.890;2023-06-22T13:08:22;30.40;73.10
42085;DHT22;27746;52.228;20.890;2023-06-22T13:10:50;30.30;72.80
42085;DHT22;27746;52.228;20.890;2023-06-22T13:13:17;30.20;73.40
42085;DHT22;27746;52.228;20.890;2023-06-22T13:15:44;30.20;72.20
42085;DHT22;27746;52.228;20.890;2023-06-22T13:18:11;30.20;72.30
42085;DHT22;27746;52.228;20.890;2023-06-22T13:20:38;30.20;72.20
42085;DHT22;27746;52.228;20.890;2023-06-22T13:23:04;30.40;72.10
42085;DHT22;27746;52.228;20.890;2023-06-22T13:25:31;30.40;72.70
42085;DHT22;27746;52.228;20.890;2023-06-22T13:27:59;30.50;71.80
42085;DHT22;27746;52.228;20.890;2023-06-22T13:30:26;30.50;72.20
42085;DHT22;27746;52.228;20.890;2023-06-22T13:32:53;30.70;73.20
42085;DHT22;27746;52.228;20.890;2023-06-22T13:35:20;30.70;70.80
42085;DHT22;27746;52.228;20.890;2023-06-22T13:37:47;30.70;71.10
42085;DHT22;27746;52.228;20.890;2023-06-22T13:40:14;30.70;71.20
42085;DHT22;27746;52.228;20.890;2023-06-22T13:42:42;30.60;71.30
42085;DHT22;27746;52.228;20.890;2023-06-22T13:45:10;30.60;71.10
42085;DHT22;27746;52.228;20.890;2023-06-22T13:47:37;30.60;72.00
42085;DHT22;27746;52.228;20.890;2023-06-22T13:50:05;30.50;70.70
42085;DHT22;27746;52.228;20.890;2023-06-22T13:52:32;30.40;69.90
42085;DHT22;27746;52.228;20.890;2023-06-22T13:54:58;30.30;69.90
42085;DHT22;27746;52.228;20.890;2023-06-22T13:57:25;30.30;70.40
42085;DHT22;27746;52.228;20.890;2023-06-22T13:59:52;30.20;70.50
42085;DHT22;27746;52.228;20.890;2023-06-22T14:02:21;30.10;71.60
42085;DHT22;27746;52.228;20.890;2023-06-22T14:04:47;30.00;69.80
42085;DHT22;27746;52.228;20.890;2023-06-22T14:07:14;29.90;70.80
42085;DHT22;27746;52.228;20.890;2023-06-22T14:09:41;29.90;71.80
42085;DHT22;27746;52.228;20.890;2023-06-22T14:12:09;30.00;71.30
42085;DHT22;27746;52.228;20.890;2023-06-22T14:14:36;30.00;71.30
42085;DHT22;27746;52.228;20.890;2023-06-22T14:17:04;30.20;71.60
42085;DHT22;27746;52.228;20.890;2023-06-22T14:19:32;30.30;71.60
42085;DHT22;27746;52.228;20.890;2023-06-22T14:22:00;30.50;71.00
42085;DHT22;27746;52.228;20.890;2023-06-22T14:24:26;30.50;70.30
42085;DHT22;27746;52.228;20.890;2023-06-22T14:26:53;30.60;70.40
42085;DHT22;27746;52.228;20.890;2023-06-22T14:29:21;30.60;70.60
42085;DHT22;27746;52.228;20.890;2023-06-22T14:31:49;30.60;70.90
42085;DHT22;27746;52.228;20.890;2023-06-22T14:34:16;30.60;70.40
42085;DHT22;27746;52.228;20.890;2023-06-22T14:36:45;30.50;69.50
42085;DHT22;27746;52.228;20.890;2023-06-22T14:39:13;30.50;69.80
42085;DHT22;27746;52.228;20.890;2023-06-22T14:41:40;30.50;70.40
42085;DHT22;27746;52.228;20.890;2023-06-22T14:44:07;30.50;70.50
42085;DHT22;27746;52.228;20.890;2023-06-22T14:46:34;30.50;70.70
42085;DHT22;27746;52.228;20.890;2023-06-22T14:49:01;30.60;69.10
42085;DHT22;27746;52.228;20.890;2023-06-22T14:51:28;30.60;69.10
42085;DHT22;27746;52.228;20.890;2023-06-22T14:53:56;30.50;68.40
42085;DHT22;27746;52.228;20.890;2023-06-22T14:56:23;30.40;68.30
42085;DHT22;27746;52.228;20.890;2023-06-22T14:58:50;30.50;68.50
42085;DHT22;27746;52.228;20.890;2023-06-22T15:01:17;30.50;68.80
42085;DHT22;27746;52.228;20.890;2023-06-22T15:03:45;29.00;68.00
42085;DHT22;27746;52.228;20.890;2023-06-22T15:06:11;30.40;69.00
42085;DHT22;27746;52.228;20.890;2023-06-22T15:08:38;30.40;68.80
42085;DHT22;27746;52.228;20.890;2023-06-22T15:11:07;30.30;68.20
42085;DHT22;27746;52.228;20.890;2023-06-22T15:13:34;30.20;68.60
42085;DHT22;27746;52.228;20.890;2023-06-22T15:16:02;30.10;68.60
42085;DHT22;27746;52.228;20.890;2023-06-22T15:18:30;30.00;69.20
42085;DHT22;27746;52.228;20.890;2023-06-22T15:20:59;30.00;69.00
42085;DHT22;27746;52.228;20.890;2023-06-22T15:23:27;30.00;68.60
42085;DHT22;27746;52.228;20.890;2023-06-22T15:25:54;29.80;68.40
42085;DHT22;27746;52.228;20.890;2023-06-22T15:28:22;29.80;68.40
42085;DHT22;27746;52.228;20.890;2023-06-22T15:30:50;29.70;68.70
42085;DHT22;27746;52.228;20.890;2023-06-22T15:33:17;29.60;68.20